createdAt,value
2018-09-15T00:01:01.847Z,14.00
2018-09-15T00:03:31.417Z,10.60
2018-09-15T00:06:02.357Z,11.13
2018-09-15T00:23:16.485Z,12.77
2018-09-15T00:25:47.267Z,12.13
2018-09-15T00:28:16.841Z,15.17
2018-09-15T00:30:46.727Z,10.27
2018-09-15T00:33:16.305Z,10.50
2018-09-15T00:35:49.994Z,12.83
2018-09-15T00:38:19.549Z,11.90
2018-09-15T00:40:49.226Z,12.63
2018-09-15T00:43:18.799Z,15.10
2018-09-15T00:45:48.821Z,15.33
2018-09-15T00:48:18.590Z,12.27
2018-09-15T00:50:48.316Z,11.83
2018-09-15T00:53:17.935Z,12.67
2018-09-15T00:55:47.559Z,12.43
2018-09-15T00:58:17.229Z,10.83
2018-09-15T01:00:48.064Z,11.90
2018-09-15T01:03:19.197Z,14.07
2018-09-15T01:05:49.019Z,9.60
2018-09-15T01:08:24.706Z,12.33
2018-09-15T01:10:54.299Z,10.77
2018-09-15T01:13:23.861Z,10.40
2018-09-15T01:15:54.160Z,9.90
2018-09-15T01:18:23.995Z,9.57
2018-09-15T01:20:53.686Z,11.13
2018-09-15T01:23:23.174Z,13.43
2018-09-15T01:25:52.701Z,8.80
2018-09-15T01:28:23.002Z,11.40
2018-09-15T01:30:52.586Z,11.87
2018-09-15T01:33:22.519Z,8.57
2018-09-15T01:35:53.443Z,9.17
2018-09-15T01:38:23.022Z,7.27
2018-09-15T01:40:52.554Z,8.77
2018-09-15T01:43:22.323Z,9.03
2018-09-15T01:45:52.754Z,11.13
2018-09-15T01:48:25.296Z,8.93
2018-09-15T01:50:54.898Z,9.90
2018-09-15T01:53:24.437Z,8.43
2018-09-15T01:56:03.720Z,9.33
2018-09-15T01:58:34.842Z,9.43
2018-09-15T02:01:04.710Z,8.73
2018-09-15T02:03:36.105Z,9.33
2018-09-15T02:06:05.712Z,9.20
2018-09-15T02:08:35.236Z,10.87
2018-09-15T02:11:05.240Z,10.60
2018-09-15T02:13:35.139Z,9.70
2018-09-15T02:16:05.571Z,9.10
2018-09-15T02:18:35.223Z,10.70
2018-09-15T02:21:06.739Z,10.70
2018-09-15T02:23:36.267Z,9.30
2018-09-15T02:26:07.402Z,10.90
2018-09-15T02:28:36.911Z,9.40
2018-09-15T02:31:11.783Z,11.20
2018-09-15T02:33:41.411Z,10.47
2018-09-15T02:36:11.222Z,11.57
2018-09-15T02:38:47.715Z,9.67
2018-09-15T02:41:17.871Z,9.23
2018-09-15T02:43:49.227Z,14.40
2018-09-15T02:46:19.537Z,9.87
2018-09-15T02:48:49.181Z,9.23
2018-09-15T02:51:19.455Z,9.30
2018-09-15T02:53:53.207Z,9.20
2018-09-15T02:56:25.006Z,8.97
2018-09-15T02:58:54.751Z,14.47
2018-09-15T03:01:24.980Z,11.10
2018-09-15T03:03:56.871Z,10.27
2018-09-15T03:06:28.615Z,8.77
2018-09-15T03:08:59.929Z,15.90
2018-09-15T03:11:30.151Z,10.00
2018-09-15T03:14:00.019Z,8.73
2018-09-15T03:16:31.526Z,10.50
2018-09-15T03:19:02.012Z,10.40
2018-09-15T03:21:33.695Z,10.73
2018-09-15T03:24:03.861Z,11.43
2018-09-15T03:26:33.562Z,11.97
2018-09-15T03:29:03.175Z,10.37
2018-09-15T03:31:33.224Z,8.23
2018-09-15T03:34:03.399Z,9.00
2018-09-15T03:36:32.808Z,9.93
2018-09-15T03:39:02.309Z,10.47
2018-09-15T03:41:32.339Z,8.63
2018-09-15T03:44:02.776Z,9.13
2018-09-15T03:46:32.261Z,9.50
2018-09-15T03:49:02.984Z,7.73
2018-09-15T03:51:36.472Z,9.13
2018-09-15T03:54:06.522Z,10.17
2018-09-15T03:56:38.547Z,10.77
2018-09-15T03:59:08.074Z,9.53
2018-09-15T04:01:38.396Z,10.70
2018-09-15T04:04:08.259Z,10.50
2018-09-15T04:06:37.615Z,10.23
2018-09-15T04:09:11.289Z,9.07
2018-09-15T04:11:42.052Z,12.00
2018-09-15T04:14:11.526Z,9.40
2018-09-15T04:16:41.064Z,11.23
2018-09-15T04:19:11.498Z,9.90
2018-09-15T04:21:50.929Z,9.33
2018-09-15T04:24:23.219Z,9.70
2018-09-15T04:26:52.654Z,12.03
2018-09-15T04:29:23.426Z,10.27
2018-09-15T04:31:52.872Z,10.77
2018-09-15T04:34:22.259Z,9.60
2018-09-15T04:36:52.260Z,9.77
2018-09-15T04:39:22.648Z,10.83
2018-09-15T04:41:52.115Z,8.87
2018-09-15T04:44:21.798Z,9.87
2018-09-15T04:46:51.170Z,10.43
2018-09-15T04:49:20.644Z,10.63
2018-09-15T04:51:50.399Z,9.27
2018-09-15T04:54:23.101Z,11.37
2018-09-15T04:56:52.542Z,11.53
2018-09-15T04:59:22.573Z,11.37
2018-09-15T05:01:52.803Z,11.00
2018-09-15T05:04:27.200Z,9.40
2018-09-15T05:06:56.726Z,12.87
2018-09-15T05:09:26.250Z,12.80
2018-09-15T05:11:55.631Z,9.97
2018-09-15T05:14:25.512Z,9.47
2018-09-15T05:16:54.909Z,8.80
2018-09-15T05:19:25.167Z,10.17
2018-09-15T05:21:54.694Z,10.73
2018-09-15T05:24:26.814Z,12.07
2018-09-15T05:26:56.236Z,10.90
2018-09-15T05:29:30.754Z,11.00
2018-09-15T05:32:00.279Z,8.67
2018-09-15T05:34:30.286Z,13.50
2018-09-15T05:37:02.579Z,9.23
2018-09-15T05:39:35.939Z,10.63
2018-09-15T05:42:05.447Z,9.23
2018-09-15T05:44:34.863Z,13.43
2018-09-15T05:47:04.355Z,10.17
2018-09-15T05:49:37.456Z,9.17
2018-09-15T05:52:07.052Z,9.13
2018-09-15T05:57:05.935Z,10.93
2018-09-15T05:59:35.553Z,13.80
2018-09-15T06:02:05.358Z,11.03
2018-09-15T06:04:35.307Z,12.17
2018-09-15T06:07:04.884Z,11.80
2018-09-15T06:09:34.326Z,10.97
2018-09-15T06:12:03.836Z,10.13
2018-09-15T06:14:34.244Z,8.30
2018-09-15T06:17:03.645Z,12.27
2018-09-15T06:19:34.498Z,9.33
2018-09-15T06:22:05.419Z,12.63
2018-09-15T06:24:35.208Z,11.77
2018-09-15T06:27:04.701Z,12.97
2018-09-15T06:29:34.223Z,10.70
2018-09-15T06:32:03.953Z,10.63
2018-09-15T06:34:34.785Z,9.00
2018-09-15T06:37:04.398Z,11.30
2018-09-15T06:39:35.196Z,11.13
2018-09-15T06:42:06.659Z,11.53
2018-09-15T06:44:36.595Z,12.97
2018-09-15T06:47:06.195Z,12.17
2018-09-15T06:49:35.936Z,11.03
2018-09-15T06:52:06.245Z,10.80
2018-09-15T06:54:35.960Z,12.00
2018-09-15T06:57:05.718Z,8.87
2018-09-15T06:59:36.193Z,12.67
2018-09-15T07:02:08.287Z,11.47
2018-09-15T07:04:37.759Z,8.27
2018-09-15T07:07:07.501Z,10.33
2018-09-15T07:09:39.215Z,9.73
2018-09-15T07:12:09.729Z,9.67
2018-09-15T07:14:39.362Z,9.80
2018-09-15T07:17:09.266Z,12.50
2018-09-15T07:19:39.907Z,9.90
2018-09-15T07:22:09.510Z,12.83
2018-09-15T07:24:40.557Z,15.60
2018-09-15T07:27:10.754Z,11.63
2018-09-15T07:29:40.096Z,13.43
2018-09-15T07:32:09.584Z,15.43
2018-09-15T07:34:41.036Z,15.10
2018-09-15T07:37:15.562Z,10.77
2018-09-15T07:39:49.597Z,10.87
2018-09-15T07:42:21.813Z,9.80
2018-09-15T07:44:52.137Z,8.70
2018-09-15T07:47:21.988Z,12.83
2018-09-15T07:49:54.699Z,10.40
2018-09-15T07:52:26.051Z,9.40
2018-09-15T07:54:55.837Z,12.73
2018-09-15T07:57:26.279Z,9.17
2018-09-15T07:59:56.513Z,8.57
2018-09-15T08:02:26.764Z,11.43
2018-09-15T08:04:57.539Z,7.57
2018-09-15T08:07:29.482Z,8.30
2018-09-15T08:10:02.044Z,10.60
2018-09-15T08:12:33.636Z,8.60
2018-09-15T08:15:04.618Z,8.20
2018-09-15T08:17:35.220Z,7.07
2018-09-15T08:20:08.662Z,7.63
2018-09-15T08:22:38.688Z,10.97
2018-09-15T08:25:10.555Z,9.77
2018-09-15T08:27:47.065Z,9.63
2018-09-15T08:30:18.736Z,8.40
2018-09-15T08:32:48.322Z,8.80
2018-09-15T08:35:19.274Z,8.33
2018-09-15T08:37:51.392Z,8.70
2018-09-15T08:40:21.332Z,7.63
2018-09-15T08:42:51.783Z,10.53
2018-09-15T08:45:22.328Z,9.50
2018-09-15T08:47:52.679Z,8.53
2018-09-15T08:50:24.561Z,6.70
2018-09-15T08:52:55.331Z,8.97
2018-09-15T08:55:26.478Z,8.73
2018-09-15T08:57:56.225Z,5.80
2018-09-15T09:00:27.812Z,8.33
2018-09-15T09:02:58.787Z,8.37
2018-09-15T09:05:29.748Z,9.60
2018-09-15T09:08:00.866Z,7.87
2018-09-15T09:10:30.380Z,7.20
2018-09-15T09:13:00.488Z,9.33
2018-09-15T09:15:30.126Z,10.47
2018-09-15T09:18:00.471Z,7.60
2018-09-15T09:20:29.906Z,5.07
2018-09-15T09:22:59.475Z,7.93
2018-09-15T09:25:29.000Z,8.27
2018-09-15T09:27:58.540Z,7.63
2018-09-15T09:30:29.067Z,8.67
2018-09-15T09:32:59.418Z,8.03
2018-09-15T09:35:30.144Z,5.53
2018-09-15T09:37:59.548Z,5.87
2018-09-15T09:40:29.084Z,7.07
2018-09-15T09:42:59.127Z,11.07
2018-09-15T09:45:30.145Z,6.93
2018-09-15T09:48:01.170Z,6.50
2018-09-15T09:50:30.648Z,6.33
2018-09-15T09:53:00.178Z,6.43
2018-09-15T09:55:30.317Z,6.87
2018-09-15T09:58:01.528Z,5.80
2018-09-15T10:00:37.216Z,6.83
2018-09-15T10:03:11.252Z,8.33
2018-09-15T10:05:40.868Z,7.53
2018-09-15T10:08:10.487Z,8.70
2018-09-15T10:10:39.939Z,7.73
2018-09-15T10:13:10.058Z,5.27
2018-09-15T10:15:41.085Z,9.27
2018-09-15T10:18:10.991Z,7.07
2018-09-15T10:20:44.412Z,6.03
2018-09-15T10:23:16.224Z,5.57
2018-09-15T10:25:45.757Z,8.70
2018-09-15T10:28:16.291Z,6.43
2018-09-15T10:30:46.932Z,7.33
2018-09-15T10:33:20.008Z,7.77
2018-09-15T10:35:49.768Z,8.37
2018-09-15T10:38:19.509Z,5.47
2018-09-15T10:40:54.381Z,6.97
2018-09-15T10:43:25.090Z,8.00
2018-09-15T10:45:56.297Z,4.83
2018-09-15T10:48:28.836Z,4.40
2018-09-15T10:50:59.972Z,4.60
2018-09-15T10:53:31.773Z,4.50
2018-09-15T10:56:02.532Z,4.47
2018-09-15T10:58:38.718Z,5.13
2018-09-15T11:01:08.970Z,4.23
2018-09-15T11:03:39.924Z,3.47
2018-09-15T11:06:16.484Z,5.20
2018-09-15T11:08:48.561Z,6.20
2018-09-15T11:11:24.526Z,5.87
2018-09-15T11:13:59.311Z,4.13
2018-09-15T11:16:29.240Z,8.10
2018-09-15T11:19:16.275Z,6.63
2018-09-15T11:21:47.106Z,5.50
2018-09-15T11:24:29.649Z,5.57
2018-09-15T11:27:02.959Z,4.23
2018-09-15T11:29:41.852Z,4.07
2018-09-15T11:32:15.064Z,5.67
2018-09-15T11:35:01.263Z,6.47
2018-09-15T11:40:27.881Z,5.83
2018-09-15T11:43:09.519Z,7.23
2018-09-15T11:45:51.610Z,6.83
2018-09-15T12:04:02.399Z,7.43
2018-09-15T12:06:33.356Z,4.80
2018-09-15T12:09:06.964Z,3.73
2018-09-15T12:11:44.649Z,4.87
2018-09-15T12:14:16.132Z,3.07
2018-09-15T12:16:46.245Z,2.43
2018-09-15T12:19:17.313Z,5.57
2018-09-15T12:21:48.340Z,4.07
2018-09-15T12:24:20.951Z,5.20
2018-09-15T12:27:01.010Z,4.37
2018-09-15T12:29:36.889Z,4.23
2018-09-15T12:35:17.833Z,3.83
2018-09-15T12:56:12.905Z,3.23
2018-09-15T12:58:53.631Z,2.90
2018-09-15T13:07:53.142Z,5.23
2018-09-15T13:38:25.739Z,2.50
2018-09-15T13:52:59.593Z,2.77
2018-09-15T13:55:33.546Z,3.00
2018-09-15T13:58:06.351Z,4.47
2018-09-15T14:00:36.329Z,1.90
2018-09-15T14:05:48.911Z,7.03
2018-09-15T14:08:22.409Z,8.17
2018-09-15T14:10:53.111Z,4.23
2018-09-15T14:13:28.094Z,5.87
2018-09-15T14:16:04.591Z,2.57
2018-09-15T14:18:35.289Z,3.67
2018-09-15T14:21:07.321Z,2.63
2018-09-15T14:23:38.194Z,2.83
2018-09-15T14:26:12.014Z,3.53
2018-09-15T14:28:46.035Z,4.03
2018-09-15T14:31:31.753Z,3.50
2018-09-15T14:34:03.174Z,3.13
2018-09-15T14:36:33.114Z,2.17
2018-09-15T14:39:06.095Z,5.60
2018-09-15T14:41:38.468Z,4.50
2018-09-15T14:44:16.397Z,2.57
2018-09-15T14:46:56.760Z,3.37
2018-09-15T14:49:29.459Z,3.80
2018-09-15T14:51:59.475Z,2.80
2018-09-15T14:54:29.957Z,2.57
2018-09-15T14:57:00.192Z,2.60
2018-09-15T14:59:30.902Z,2.67
2018-09-15T15:02:02.020Z,3.10
2018-09-15T15:04:39.878Z,2.03
2018-09-15T15:07:14.597Z,3.27
2018-09-15T15:09:51.007Z,2.27
2018-09-15T15:15:01.791Z,2.47
2018-09-15T15:17:34.219Z,2.80
2018-09-15T15:20:07.107Z,2.07
2018-09-15T15:22:37.766Z,3.10
2018-09-15T15:25:16.031Z,2.30
2018-09-15T15:27:58.349Z,2.63
2018-09-15T15:30:37.732Z,3.40
2018-09-15T15:33:08.883Z,7.93
2018-09-15T15:35:53.051Z,4.10
2018-09-15T15:38:25.553Z,4.50
2018-09-15T15:40:56.864Z,4.37
2018-09-15T15:43:27.213Z,2.20
2018-09-15T15:45:59.460Z,5.43
2018-09-15T15:48:32.578Z,2.40
2018-09-15T15:51:11.439Z,3.57
2018-09-15T15:53:43.795Z,4.57
2018-09-15T15:56:13.567Z,4.83
2018-09-15T15:58:46.624Z,2.40
2018-09-15T16:01:18.264Z,3.97
2018-09-15T16:03:49.335Z,2.23
2018-09-15T16:06:19.346Z,3.57
2018-09-15T16:08:59.208Z,3.57
2018-09-15T16:14:27.085Z,2.77
2018-09-15T16:16:58.633Z,3.33
2018-09-15T16:19:37.125Z,2.40
2018-09-15T16:22:13.971Z,2.40
2018-09-15T16:24:57.205Z,3.87
2018-09-15T16:27:30.392Z,3.57
2018-09-15T16:33:33.170Z,2.77
2018-09-15T16:36:05.413Z,6.20
2018-09-15T16:38:37.013Z,6.20
2018-09-15T16:41:12.628Z,5.47
2018-09-15T16:43:43.780Z,3.70
2018-09-15T16:46:15.805Z,4.07
2018-09-15T16:48:46.470Z,2.93
2018-09-15T16:51:26.182Z,2.10
2018-09-15T16:53:56.797Z,2.90
2018-09-15T16:56:27.284Z,3.87
2018-09-15T16:58:58.790Z,2.97
2018-09-15T17:01:29.509Z,4.40
2018-09-15T17:04:00.385Z,6.03
2018-09-15T17:06:33.124Z,3.57
2018-09-15T17:13:09.687Z,2.70
2018-09-15T17:15:42.247Z,5.93
2018-09-15T17:18:14.216Z,4.47
2018-09-15T17:20:52.458Z,4.37
2018-09-15T17:23:25.292Z,3.80
2018-09-15T17:25:56.469Z,3.10
2018-09-15T17:28:33.106Z,2.80
2018-09-15T17:31:05.823Z,3.67
2018-09-15T17:33:40.630Z,3.43
2018-09-15T17:36:11.168Z,3.20
2018-09-15T17:38:41.167Z,4.27
2018-09-15T17:41:14.674Z,5.77
2018-09-15T17:43:52.229Z,3.33
2018-09-15T17:46:40.512Z,4.00
2018-09-15T17:49:19.798Z,4.50
2018-09-15T17:52:05.348Z,5.47
2018-09-15T18:00:36.179Z,4.03
2018-09-15T18:03:10.233Z,4.27
2018-09-15T18:05:51.807Z,3.43
2018-09-15T18:08:25.483Z,5.00
2018-09-15T18:11:01.497Z,8.20
2018-09-15T18:13:33.840Z,3.43
2018-09-15T18:16:04.693Z,3.83
2018-09-15T18:18:35.764Z,3.73
2018-09-15T18:21:11.650Z,4.10
2018-09-15T18:23:44.521Z,3.83
2018-09-15T18:26:17.228Z,5.70
2018-09-15T18:28:49.552Z,4.90
2018-09-15T18:31:20.316Z,2.90
2018-09-15T18:33:53.364Z,7.37
2018-09-15T18:39:13.799Z,3.90
2018-09-15T18:41:45.393Z,4.00
2018-09-15T18:44:15.458Z,6.43
2018-09-15T18:46:45.979Z,5.30
2018-09-15T18:49:17.407Z,7.00
2018-09-15T18:54:40.963Z,5.40
2018-09-15T19:18:15.298Z,9.63
2018-09-15T19:20:47.372Z,11.27
2018-09-15T19:23:38.604Z,7.00
2018-09-15T19:26:10.191Z,5.17
2018-09-15T19:28:45.142Z,6.07
2018-09-15T19:31:23.754Z,6.23
2018-09-15T19:33:54.283Z,8.70
2018-09-15T19:36:26.979Z,5.93
2018-09-15T19:39:24.327Z,5.60
2018-09-15T19:42:01.865Z,5.30
2018-09-15T19:44:36.234Z,6.30
2018-09-15T19:49:58.891Z,6.00
2018-09-15T19:52:30.728Z,7.27
2018-09-15T19:55:06.375Z,8.33
2018-09-15T19:57:41.277Z,5.90
2018-09-15T20:00:21.544Z,7.50
2018-09-15T20:02:52.848Z,6.60
2018-09-15T20:06:10.159Z,7.70
2018-09-15T20:08:43.315Z,5.73
2018-09-15T20:11:20.724Z,7.00
2018-09-15T20:14:22.667Z,6.70
2018-09-15T20:16:53.649Z,5.90
2018-09-15T20:19:24.309Z,5.70
2018-09-15T20:24:51.842Z,5.87
2018-09-15T20:27:26.654Z,7.10
2018-09-15T20:30:15.638Z,7.83
2018-09-15T20:32:47.082Z,6.97
2018-09-15T20:38:01.028Z,7.57
2018-09-15T20:40:35.032Z,5.37
2018-09-15T20:43:06.810Z,12.73
2018-09-15T20:45:37.001Z,7.07
2018-09-15T20:48:11.695Z,7.70
2018-09-15T20:50:43.442Z,9.67
2018-09-15T20:54:05.270Z,8.70
2018-09-15T20:56:36.618Z,7.63
2018-09-15T20:59:16.157Z,9.17
2018-09-15T21:01:53.664Z,7.40
2018-09-15T21:04:25.609Z,6.57
2018-09-15T21:06:58.752Z,7.87
2018-09-15T21:09:29.607Z,10.70
2018-09-15T21:14:42.272Z,6.80
2018-09-15T21:17:37.218Z,7.73
2018-09-15T21:23:06.607Z,9.10
2018-09-15T21:25:43.674Z,7.90
2018-09-15T21:28:23.749Z,7.07
2018-09-15T21:31:17.248Z,8.73
2018-09-15T21:33:49.159Z,7.73
2018-09-15T21:36:21.032Z,7.20
2018-09-15T21:38:52.209Z,9.67
2018-09-15T21:41:30.316Z,8.93
2018-09-15T21:44:02.285Z,9.47
2018-09-15T21:52:21.275Z,7.27
2018-09-15T21:54:51.160Z,9.73
2018-09-15T21:57:21.230Z,6.57
2018-09-15T21:59:52.191Z,10.80
2018-09-15T22:02:24.624Z,9.17
2018-09-15T22:04:59.217Z,8.43
2018-09-15T22:07:30.041Z,7.23
2018-09-15T22:10:00.959Z,9.00
2018-09-15T22:12:31.640Z,9.83
2018-09-15T22:15:01.773Z,8.03
2018-09-15T22:17:35.658Z,13.57
2018-09-15T22:20:09.131Z,9.00
2018-09-15T22:22:40.211Z,9.57
2018-09-15T22:25:22.197Z,8.40
2018-09-15T22:28:11.463Z,9.93
2018-09-15T22:30:44.245Z,9.00
2018-09-15T22:33:14.269Z,9.03
2018-09-15T22:35:45.995Z,11.10
2018-09-15T22:38:17.948Z,10.70
2018-09-15T22:40:50.540Z,10.93
2018-09-15T22:43:21.165Z,7.87
2018-09-15T22:45:52.723Z,8.53
2018-09-15T22:48:24.065Z,9.00
2018-09-15T22:50:55.706Z,8.30
2018-09-15T22:53:25.653Z,10.23
2018-09-15T22:55:57.432Z,10.03
2018-09-15T22:58:28.377Z,8.77
2018-09-15T23:00:58.449Z,13.27
2018-09-15T23:03:28.615Z,11.60
2018-09-15T23:05:58.963Z,9.77
2018-09-15T23:08:31.255Z,9.37
2018-09-15T23:11:01.179Z,9.90
2018-09-15T23:13:31.236Z,11.83
2018-09-15T23:16:01.258Z,9.70
2018-09-15T23:18:32.237Z,10.73
2018-09-15T23:21:02.331Z,9.60
2018-09-15T23:23:34.737Z,11.00
2018-09-15T23:26:05.639Z,9.53
2018-09-15T23:28:36.040Z,12.10
2018-09-15T23:31:07.449Z,8.87
2018-09-15T23:33:37.674Z,12.03
2018-09-15T23:36:09.889Z,11.63
2018-09-15T23:38:45.450Z,9.33
2018-09-15T23:41:16.166Z,11.80
2018-09-15T23:43:46.699Z,9.20
2018-09-15T23:46:18.044Z,12.40
2018-09-15T23:48:50.792Z,8.60
2018-09-15T23:51:21.178Z,8.30
2018-09-15T23:53:51.786Z,11.67
2018-09-15T23:56:23.513Z,9.83
2018-09-15T23:58:53.467Z,11.73
